Decoded Metar for LFSO (NANCY OCHEY in FRANCE) (IATA:N/A) | Meteo·Mobile Aviation Weather
aviador You're here:

LFSO Decoded Metar

NANCY OCHEY in FRANCE
Report Time2018-09-21 09:30:00
UTC Time2018-09-21 09:40:33
Flight Rules ifr IFR
Wind220° at 19 kt
W.Decomp.*RWY 20: 17.9 kt HW 6.5 kt RCW
W.Rank220° ranks 2
Current wind is above 220° avg. (8.9)
Visibility9999 m
Phenomena:Shower Rain
Clouds:Broken 008 Hf
Expected CloudBase > 3,200 ft AGL from Temp-Dew spread
Ceiling800 ft
Temp20°C (ISA +7)
Dew Point12°C (60% RH)
AAT13.8°C
QNH1012 hPa
Density Alt2,224 ft
Elevation1,148 ft
Report Wrong Elevation
Raw Report
METAR LFSO 210930Z AUTO 22019KT CAVOK 20/12 Q1012 TEMPO 28015G35KT
3000 SHRA BKN008 BKN015TCU=

Extra information for LFSO:More info

Metar Taf Metar & Taf Last 4 Metars F.Rules Stats Wind Profile Meteogram Temp Stats Airport Information Weather charts Add Link Nearby VenuesMetar ALERT Operation Metar Decoded Social comments